createdAt,value
2019-04-21T00:02:30.578Z,9.9
2019-04-21T00:07:41.846Z,9.8
2019-04-21T00:17:29.965Z,9.6
2019-04-21T00:22:41.091Z,9.5
2019-04-21T00:27:46.295Z,9.4
2019-04-21T00:32:38.708Z,9.4
2019-04-21T00:37:47.735Z,9.4
2019-04-21T00:42:42.852Z,9.2
2019-04-21T00:47:45.441Z,8.9
2019-04-21T00:57:44.672Z,8.9
2019-04-21T01:02:44.339Z,8.8
2019-04-21T01:07:45.320Z,8.7
2019-04-21T01:12:47.510Z,8.7
2019-04-21T01:22:28.769Z,8.4
2019-04-21T01:27:49.264Z,8.3
2019-04-21T01:32:48.008Z,8.3
2019-04-21T01:42:45.039Z,8.1
2019-04-21T01:47:45.799Z,8.1
2019-04-21T01:52:55.710Z,7.9
2019-04-21T01:57:42.341Z,7.9
2019-04-21T02:02:54.011Z,7.8
2019-04-21T02:07:44.008Z,7.7
2019-04-21T02:12:50.566Z,7.5
2019-04-21T02:17:46.813Z,7.4
2019-04-21T02:23:04.499Z,7.4
2019-04-21T02:27:49.461Z,7.4
2019-04-21T02:38:00.612Z,7.0
2019-04-21T02:42:55.446Z,6.9
2019-04-21T02:48:03.812Z,6.9
2019-04-21T02:52:52.114Z,6.9
2019-04-21T02:57:49.246Z,6.9
2019-04-21T03:02:46.615Z,6.9
2019-04-21T03:13:03.320Z,6.7
2019-04-21T03:28:04.610Z,6.5
2019-04-21T03:37:52.139Z,6.4
2019-04-21T03:42:56.562Z,6.4
2019-04-21T03:47:42.863Z,6.2
2019-04-21T03:52:53.023Z,6.1
2019-04-21T03:58:04.079Z,6.2
2019-04-21T04:03:07.173Z,6.1
2019-04-21T04:17:53.749Z,5.7
2019-04-21T04:28:07.968Z,5.7
2019-04-21T04:32:56.122Z,5.7
2019-04-21T04:37:55.361Z,5.7
2019-04-21T04:43:04.930Z,5.6
2019-04-21T04:52:50.980Z,6.0
2019-04-21T04:57:58.891Z,5.9
2019-04-21T05:02:55.769Z,6.3
2019-04-21T05:08:05.323Z,6.8
2019-04-21T05:22:47.058Z,7.1
2019-04-21T05:27:37.838Z,7.2
2019-04-21T05:32:52.178Z,7.4
2019-04-21T05:37:47.130Z,7.7
2019-04-21T05:42:45.289Z,8.0
2019-04-21T05:47:54.717Z,8.3
2019-04-21T05:57:45.592Z,8.8
2019-04-21T06:02:57.510Z,9.1
2019-04-21T06:07:45.946Z,9.3
2019-04-21T06:12:48.664Z,9.6
2019-04-21T06:17:48.611Z,10.0
2019-04-21T06:22:46.195Z,10.3
2019-04-21T06:27:50.602Z,10.6
2019-04-21T06:32:51.996Z,11.0
2019-04-21T06:37:48.946Z,11.3
2019-04-21T06:43:04.209Z,11.5
2019-04-21T06:47:49.532Z,11.9
2019-04-21T06:52:53.594Z,12.2
2019-04-21T06:57:42.960Z,12.5
2019-04-21T07:03:01.037Z,12.8
2019-04-21T07:08:07.437Z,13.2
2019-04-21T07:12:44.702Z,13.6
2019-04-21T07:17:49.741Z,14.4
2019-04-21T07:22:41.369Z,14.3
2019-04-21T07:32:47.155Z,15.7
2019-04-21T07:37:40.393Z,15.7
2019-04-21T07:42:42.509Z,16.2
2019-04-21T07:47:45.689Z,16.6
2019-04-21T07:52:53.037Z,17.2
2019-04-21T07:57:41.432Z,17.6
2019-04-21T08:02:48.965Z,18.0
2019-04-21T08:07:51.747Z,18.4
2019-04-21T08:12:45.742Z,18.8
2019-04-21T08:17:46.707Z,19.3
2019-04-21T08:22:50.825Z,19.9
2019-04-21T08:27:53.724Z,20.4
2019-04-21T08:37:42.817Z,22.0
2019-04-21T08:42:50.663Z,22.0
2019-04-21T08:47:45.625Z,22.4
2019-04-21T08:52:59.620Z,22.9
2019-04-21T08:58:07.886Z,23.3
2019-04-21T09:03:01.594Z,23.6
2019-04-21T09:07:50.719Z,24.2
2019-04-21T09:12:51.561Z,24.2
2019-04-21T09:17:40.714Z,24.6
2019-04-21T09:22:41.035Z,24.9
2019-04-21T09:27:40.871Z,25.2
2019-04-21T09:32:31.311Z,25.4
2019-04-21T09:37:39.529Z,25.6
2019-04-21T09:42:35.830Z,25.9
2019-04-21T09:47:34.901Z,26.1
2019-04-21T09:52:37.476Z,26.4
2019-04-21T09:57:36.832Z,26.7
2019-04-21T10:02:34.039Z,26.9
2019-04-21T10:07:33.205Z,27.1
2019-04-21T10:12:28.804Z,27.4
2019-04-21T10:17:29.561Z,27.6
2019-04-21T10:22:28.813Z,27.6
2019-04-21T10:27:29.410Z,27.8
2019-04-21T10:32:30.091Z,28.0
2019-04-21T10:37:41.835Z,27.9
2019-04-21T10:42:29.085Z,28.1
2019-04-21T10:47:29.315Z,28.5
2019-04-21T10:52:30.831Z,28.5
2019-04-21T10:57:28.468Z,28.6
2019-04-21T11:02:28.844Z,28.8
2019-04-21T11:07:33.198Z,28.9
2019-04-21T11:12:28.888Z,28.9
2019-04-21T11:17:30.164Z,29.1
2019-04-21T11:22:28.491Z,29.3
2019-04-21T11:27:28.856Z,29.6
2019-04-21T11:32:28.265Z,29.6
2019-04-21T11:37:30.329Z,29.7
2019-04-21T11:42:28.123Z,30.0
2019-04-21T11:47:30.190Z,30.2
2019-04-21T11:52:28.878Z,30.3
2019-04-21T11:57:34.463Z,30.5
2019-04-21T12:02:29.755Z,30.8
2019-04-21T12:07:29.748Z,30.8
2019-04-21T12:12:29.588Z,31.2
2019-04-21T12:17:28.377Z,31.5
2019-04-21T12:22:31.666Z,31.4
2019-04-21T12:27:29.916Z,31.6
2019-04-21T12:32:28.596Z,31.7
2019-04-21T12:37:28.955Z,31.7
2019-04-21T12:42:28.271Z,31.9
2019-04-21T12:47:29.793Z,32.1
2019-04-21T12:52:29.386Z,32.4
2019-04-21T12:57:31.387Z,32.6
2019-04-21T13:02:29.538Z,32.7
2019-04-21T13:07:28.671Z,32.9
2019-04-21T13:12:28.950Z,33.1
2019-04-21T13:17:28.356Z,33.3
2019-04-21T13:22:29.951Z,33.7
2019-04-21T13:27:28.847Z,33.7
2019-04-21T13:32:29.384Z,33.5
2019-04-21T13:37:29.461Z,33.5
2019-04-21T13:42:36.158Z,33.9
2019-04-21T13:47:30.360Z,34.2
2019-04-21T13:52:28.962Z,34.3
2019-04-21T13:57:28.470Z,34.3
2019-04-21T14:02:29.016Z,34.7
2019-04-21T14:07:30.238Z,35.3
2019-04-21T14:12:29.653Z,35.6
2019-04-21T14:17:30.647Z,35.6
2019-04-21T14:22:29.023Z,36.0
2019-04-21T14:27:28.210Z,36.7
2019-04-21T14:32:29.488Z,37.5
2019-04-21T14:37:29.068Z,38.7
2019-04-21T14:42:28.269Z,40.2
2019-04-21T14:47:29.442Z,42.2
2019-04-21T14:52:28.681Z,44.2
2019-04-21T14:57:29.122Z,46.3
2019-04-21T15:02:29.762Z,47.2
2019-04-21T15:07:28.664Z,47.6
2019-04-21T15:12:28.232Z,47.6
2019-04-21T15:17:29.338Z,48.7
2019-04-21T15:22:28.316Z,48.8
2019-04-21T15:27:28.364Z,50.5
2019-04-21T15:32:28.733Z,50.5
2019-04-21T15:37:28.280Z,52.4
2019-04-21T15:42:28.359Z,52.8
2019-04-21T15:47:29.522Z,52.9
2019-04-21T15:52:28.129Z,51.7
2019-04-21T15:57:29.947Z,51.7
2019-04-21T16:02:28.658Z,50.6
2019-04-21T16:07:28.139Z,50.0
2019-04-21T16:12:29.661Z,53.4
2019-04-21T16:17:29.953Z,53.4
2019-04-21T16:22:28.643Z,53.3
2019-04-21T16:27:29.545Z,51.9
2019-04-21T16:32:28.315Z,51.8
2019-04-21T16:37:27.871Z,50.6
2019-04-21T16:42:30.025Z,49.4
2019-04-21T16:47:28.321Z,48.0
2019-04-21T16:52:28.230Z,42.6
2019-04-21T16:57:28.338Z,42.5
2019-04-21T17:02:30.285Z,40.6
2019-04-21T17:07:28.418Z,38.3
2019-04-21T17:12:28.814Z,33.8
2019-04-21T17:17:49.500Z,33.8
2019-04-21T17:22:27.937Z,32.5
2019-04-21T17:27:29.150Z,30.4
2019-04-21T17:32:34.211Z,30.2
2019-04-21T17:37:29.143Z,29.4
2019-04-21T17:42:36.194Z,28.5
2019-04-21T17:47:39.808Z,27.7
2019-04-21T17:52:35.128Z,26.3
2019-04-21T17:57:41.846Z,26.3
2019-04-21T18:02:47.433Z,25.2
2019-04-21T18:07:46.290Z,25.2
2019-04-21T18:12:39.426Z,24.6
2019-04-21T18:17:28.719Z,24.1
2019-04-21T18:22:32.011Z,23.6
2019-04-21T18:27:29.823Z,23.2
2019-04-21T18:32:32.159Z,22.8
2019-04-21T18:37:32.966Z,22.5
2019-04-21T18:42:43.614Z,21.7
2019-04-21T18:47:39.698Z,21.6
2019-04-21T18:52:43.960Z,21.3
2019-04-21T18:57:35.153Z,20.7
2019-04-21T19:02:36.566Z,20.6
2019-04-21T19:07:45.028Z,20.4
2019-04-21T19:13:08.767Z,20.2
2019-04-21T19:18:14.684Z,19.9
2019-04-21T19:22:41.415Z,19.7
2019-04-21T19:27:41.569Z,19.3
2019-04-21T19:32:38.748Z,19.2
2019-04-21T19:37:30.676Z,19.1
2019-04-21T19:42:37.459Z,18.9
2019-04-21T19:47:44.239Z,18.6
2019-04-21T19:52:36.497Z,18.5
2019-04-21T19:57:29.146Z,18.3
2019-04-21T20:02:28.194Z,17.8
2019-04-21T20:07:39.800Z,17.7
2019-04-21T20:12:44.982Z,17.5
2019-04-21T20:17:42.009Z,17.3
2019-04-21T20:22:32.539Z,17.1
2019-04-21T20:27:38.399Z,16.9
2019-04-21T20:32:48.726Z,16.7
2019-04-21T20:37:41.601Z,16.3
2019-04-21T20:42:42.212Z,16.2
2019-04-21T20:47:34.884Z,16.1
2019-04-21T20:52:47.545Z,15.9
2019-04-21T20:57:39.695Z,15.8
2019-04-21T21:02:45.781Z,15.6
2019-04-21T21:07:49.929Z,15.3
2019-04-21T21:12:48.894Z,15.2
2019-04-21T21:17:51.966Z,15.0
2019-04-21T21:22:42.159Z,14.8
2019-04-21T21:27:41.500Z,14.8
2019-04-21T21:32:42.369Z,14.6
2019-04-21T21:37:40.791Z,14.5
2019-04-21T21:42:31.830Z,14.3
2019-04-21T21:52:39.558Z,13.9
2019-04-21T21:57:28.415Z,13.7
2019-04-21T22:02:33.823Z,13.6
2019-04-21T22:07:31.687Z,13.5
2019-04-21T22:12:34.960Z,13.3
2019-04-21T22:23:11.172Z,12.8
2019-04-21T22:28:04.273Z,12.6
2019-04-21T22:33:08.189Z,12.5
2019-04-21T22:38:18.916Z,12.4
2019-04-21T22:43:11.212Z,12.3
2019-04-21T22:48:12.328Z,12.1
2019-04-21T22:53:07.124Z,12.1
2019-04-21T22:58:05.368Z,12.0
2019-04-21T23:03:10.517Z,11.9
2019-04-21T23:08:06.979Z,11.9
2019-04-21T23:12:29.617Z,11.8
2019-04-21T23:17:45.536Z,11.6
2019-04-21T23:22:51.152Z,11.5
2019-04-21T23:27:46.678Z,11.4
2019-04-21T23:32:39.065Z,11.3
2019-04-21T23:37:27.749Z,11.1
2019-04-21T23:42:33.246Z,11.1
2019-04-21T23:47:34.413Z,11.0
2019-04-21T23:52:27.897Z,10.9
2019-04-21T23:57:33.982Z,10.8
